createdAt,value
2019-01-06T00:02:16.944Z,9.60
2019-01-06T00:04:47.922Z,9.50
2019-01-06T00:07:26.187Z,9.60
2019-01-06T00:10:02.916Z,9.50
2019-01-06T00:12:36.655Z,9.60
2019-01-06T00:15:14.012Z,9.60
2019-01-06T00:18:01.480Z,9.60
2019-01-06T00:20:44.505Z,9.60
2019-01-06T00:23:17.980Z,9.60
2019-01-06T00:25:48.972Z,9.60
2019-01-06T00:28:36.314Z,9.60
2019-01-06T00:31:23.518Z,9.60
2019-01-06T00:33:55.161Z,9.50
2019-01-06T00:36:26.161Z,9.50
2019-01-06T00:39:00.135Z,9.60
2019-01-06T00:41:37.079Z,9.60
2019-01-06T00:44:16.831Z,9.60
2019-01-06T00:47:06.003Z,9.60
2019-01-06T00:49:37.392Z,9.50
2019-01-06T00:52:24.659Z,9.50
2019-01-06T00:55:12.037Z,9.50
2019-01-06T00:57:45.915Z,9.50
2019-01-06T01:00:16.919Z,9.50
2019-01-06T01:02:47.960Z,9.50
2019-01-06T01:05:18.945Z,9.60
2019-01-06T01:07:55.935Z,9.50
2019-01-06T01:10:29.985Z,9.50
2019-01-06T01:13:09.977Z,9.50
2019-01-06T01:15:48.104Z,9.50
2019-01-06T01:18:19.121Z,9.50
2019-01-06T01:21:05.102Z,9.50
2019-01-06T01:23:36.527Z,9.50
2019-01-06T01:26:22.537Z,9.50
2019-01-06T01:29:09.786Z,9.50
2019-01-06T01:31:46.721Z,9.50
2019-01-06T01:34:17.716Z,9.50
2019-01-06T01:37:06.767Z,9.50
2019-01-06T01:39:54.259Z,9.50
2019-01-06T01:42:41.597Z,9.50
2019-01-06T01:45:12.602Z,9.40
2019-01-06T01:47:46.689Z,9.50
2019-01-06T01:50:17.675Z,9.50
2019-01-06T01:52:48.673Z,9.50
2019-01-06T01:55:19.671Z,9.50
2019-01-06T02:18:05.932Z,6.90
2019-01-06T02:20:36.925Z,7.20
2019-01-06T02:23:16.701Z,7.50
2019-01-06T02:25:53.715Z,7.80
2019-01-06T02:28:24.723Z,8.00
2019-01-06T02:30:58.664Z,8.20
2019-01-06T02:33:38.693Z,8.40
2019-01-06T02:36:09.646Z,8.50
2019-01-06T02:38:43.561Z,8.60
2019-01-06T02:41:30.639Z,8.70
2019-01-06T02:44:01.671Z,8.80
2019-01-06T02:46:41.744Z,8.90
2019-01-06T02:49:21.819Z,9.00
2019-01-06T02:51:52.818Z,9.00
2019-01-06T02:54:29.799Z,9.00
2019-01-06T02:57:03.554Z,9.10
2019-01-06T02:59:51.273Z,9.10
2019-01-06T03:02:31.411Z,9.10
2019-01-06T03:05:05.399Z,9.10
2019-01-06T03:07:45.350Z,9.20
2019-01-06T03:10:16.341Z,9.20
2019-01-06T03:12:59.682Z,9.20
2019-01-06T03:15:36.711Z,9.20
2019-01-06T03:18:24.805Z,9.20
2019-01-06T03:21:11.434Z,9.20
2019-01-06T03:23:42.419Z,9.20
2019-01-06T03:26:13.416Z,9.20
2019-01-06T03:28:50.508Z,9.30
2019-01-06T03:31:27.430Z,9.30
2019-01-06T03:34:07.552Z,9.30
2019-01-06T03:36:50.618Z,9.30
2019-01-06T03:39:38.318Z,9.30
2019-01-06T03:42:25.699Z,9.30
2019-01-06T03:45:08.517Z,9.20
2019-01-06T03:47:39.521Z,9.20
2019-01-06T03:50:13.652Z,9.30
2019-01-06T03:52:47.654Z,9.30
2019-01-06T03:55:29.349Z,9.30
2019-01-06T03:58:12.255Z,9.30
2019-01-06T04:00:49.138Z,9.30
2019-01-06T04:03:29.439Z,9.30
2019-01-06T04:06:03.427Z,9.30
2019-01-06T04:08:43.364Z,9.30
2019-01-06T04:11:31.275Z,9.30
2019-01-06T04:14:14.447Z,9.30
2019-01-06T04:16:48.167Z,9.30
2019-01-06T04:19:19.851Z,9.30
2019-01-06T04:22:07.502Z,9.30
2019-01-06T04:24:44.050Z,9.30
2019-01-06T04:27:31.361Z,9.30
2019-01-06T04:30:20.407Z,9.30
2019-01-06T04:33:07.901Z,9.30
2019-01-06T04:35:50.965Z,9.30
2019-01-06T04:38:40.103Z,9.30
2019-01-06T04:41:27.373Z,9.30
2019-01-06T04:44:15.136Z,9.30
2019-01-06T04:46:52.094Z,9.20
2019-01-06T04:49:23.105Z,9.30
2019-01-06T04:52:05.579Z,9.30
2019-01-06T04:54:54.611Z,9.30
2019-01-06T04:57:25.611Z,9.30
2019-01-06T04:59:56.601Z,9.30
2019-01-06T05:02:27.681Z,9.30
2019-01-06T05:05:01.370Z,9.30
2019-01-06T05:07:35.291Z,9.30
2019-01-06T05:10:09.599Z,9.30
2019-01-06T05:12:49.689Z,9.40
2019-01-06T05:15:23.606Z,9.40
2019-01-06T05:18:06.872Z,9.30
2019-01-06T05:20:38.217Z,9.40
2019-01-06T05:23:09.198Z,9.40
2019-01-06T05:25:46.181Z,9.40
2019-01-06T05:28:17.175Z,9.40
2019-01-06T05:31:00.194Z,9.40
2019-01-06T05:33:47.572Z,9.30
2019-01-06T05:36:21.484Z,9.40
2019-01-06T05:38:58.264Z,9.40
2019-01-06T05:41:29.264Z,9.40
2019-01-06T05:44:00.245Z,9.40
2019-01-06T05:46:40.122Z,9.40
2019-01-06T05:49:11.098Z,9.40
2019-01-06T05:51:48.319Z,9.40
2019-01-06T05:54:28.179Z,9.40
2019-01-06T05:57:10.719Z,9.40
2019-01-06T05:59:57.792Z,9.40
2019-01-06T06:02:31.337Z,9.40
2019-01-06T06:05:02.392Z,9.40
2019-01-06T06:07:36.087Z,9.40
2019-01-06T06:10:09.419Z,9.40
2019-01-06T06:12:56.831Z,9.50
2019-01-06T06:15:30.739Z,9.40
2019-01-06T06:18:16.641Z,9.40
2019-01-06T06:20:47.652Z,9.40
2019-01-06T06:23:32.312Z,9.40
2019-01-06T06:26:20.597Z,9.40
2019-01-06T06:28:51.581Z,9.40
2019-01-06T06:31:22.573Z,9.40
2019-01-06T06:33:56.441Z,9.40
2019-01-06T06:36:27.430Z,9.50
2019-01-06T06:39:14.392Z,9.50
2019-01-06T06:41:47.834Z,9.40
2019-01-06T06:44:34.325Z,9.40
2019-01-06T06:47:23.091Z,9.40
2019-01-06T06:49:54.107Z,9.40
2019-01-06T06:52:41.417Z,9.40
2019-01-06T06:55:12.420Z,9.40
2019-01-06T06:58:15.336Z,9.40
2019-01-06T07:01:12.903Z,9.30
2019-01-06T07:03:57.733Z,9.30
2019-01-06T07:06:46.884Z,9.30
2019-01-06T07:09:29.926Z,9.30
2019-01-06T07:12:03.856Z,9.30
2019-01-06T07:14:34.886Z,9.30
2019-01-06T07:17:46.956Z,9.30
2019-01-06T07:20:36.508Z,9.30
2019-01-06T07:23:26.010Z,9.30
2019-01-06T07:26:13.741Z,9.30
2019-01-06T07:28:50.680Z,9.30
2019-01-06T07:31:37.980Z,9.30
2019-01-06T07:34:21.744Z,9.30
2019-01-06T07:36:55.258Z,9.30
2019-01-06T07:39:32.054Z,9.30
2019-01-06T07:42:03.042Z,9.30
2019-01-06T07:44:36.767Z,9.40
2019-01-06T07:47:16.369Z,9.40
2019-01-06T07:49:54.109Z,9.40
2019-01-06T07:52:34.166Z,9.40
2019-01-06T07:55:11.227Z,9.40
2019-01-06T07:57:44.919Z,9.40
2019-01-06T08:00:27.858Z,9.40
2019-01-06T08:03:07.979Z,9.40
2019-01-06T08:05:56.030Z,9.40
2019-01-06T08:08:38.980Z,9.40
2019-01-06T08:11:09.975Z,9.40
2019-01-06T08:13:40.957Z,9.40
2019-01-06T08:16:21.193Z,9.40
2019-01-06T08:18:54.998Z,9.40
2019-01-06T08:21:42.306Z,9.50
2019-01-06T08:24:13.288Z,9.40
2019-01-06T08:27:01.832Z,9.40
2019-01-06T08:29:48.984Z,9.40
2019-01-06T08:32:19.983Z,9.40
2019-01-06T08:35:07.175Z,9.40
2019-01-06T08:37:54.638Z,9.50
2019-01-06T08:40:31.578Z,9.40
2019-01-06T08:43:18.994Z,9.40
2019-01-06T08:46:05.839Z,9.40
2019-01-06T08:48:52.929Z,9.40
2019-01-06T08:51:27.009Z,9.40
2019-01-06T08:54:04.067Z,9.40
2019-01-06T08:56:38.187Z,9.50
2019-01-06T08:59:09.164Z,9.50
2019-01-06T09:01:57.885Z,9.50
2019-01-06T09:04:28.862Z,9.50
2019-01-06T09:06:59.851Z,9.50
2019-01-06T09:09:47.589Z,9.50
2019-01-06T09:12:18.573Z,9.50
2019-01-06T09:14:49.541Z,9.50
2019-01-06T09:17:20.546Z,9.60
2019-01-06T09:20:06.777Z,9.60
2019-01-06T09:22:54.227Z,9.60
2019-01-06T09:25:41.472Z,9.50
2019-01-06T09:28:13.446Z,9.50
2019-01-06T09:30:44.427Z,9.50
2019-01-06T09:33:18.089Z,9.50
2019-01-06T09:35:58.021Z,9.60
2019-01-06T09:38:34.660Z,9.60
2019-01-06T09:41:14.661Z,9.60
2019-01-06T09:43:45.652Z,9.60
2019-01-06T09:46:29.067Z,9.60
2019-01-06T09:49:16.546Z,9.60
2019-01-06T09:52:03.870Z,9.60
2019-01-06T09:54:51.034Z,9.60
2019-01-06T09:57:24.779Z,9.60
2019-01-06T10:00:12.203Z,9.70
2019-01-06T10:02:45.829Z,9.70
2019-01-06T10:05:16.811Z,9.70
2019-01-06T10:07:50.446Z,9.70
2019-01-06T10:10:30.498Z,9.70
2019-01-06T10:13:04.219Z,9.70
2019-01-06T10:15:41.146Z,9.80
2019-01-06T10:18:17.878Z,9.80
2019-01-06T10:21:01.201Z,9.80
2019-01-06T10:23:32.195Z,9.80
2019-01-06T10:26:19.459Z,9.80
2019-01-06T10:29:06.600Z,9.80
2019-01-06T10:31:53.854Z,9.80
2019-01-06T10:34:41.086Z,9.80
2019-01-06T10:37:15.067Z,9.80
2019-01-06T10:39:55.114Z,9.90
2019-01-06T10:42:29.066Z,9.90
2019-01-06T10:45:16.426Z,9.90
2019-01-06T10:48:03.686Z,9.80
2019-01-06T10:50:46.647Z,9.90
2019-01-06T10:53:30.361Z,9.80
2019-01-06T10:56:13.601Z,9.80
2019-01-06T11:01:50.008Z,9.80
2019-01-06T11:04:23.721Z,9.80
2019-01-06T11:06:57.430Z,9.90
2019-01-06T11:09:34.534Z,9.90
2019-01-06T11:12:21.712Z,9.90
2019-01-06T11:14:52.760Z,9.90
2019-01-06T11:17:40.145Z,9.90
2019-01-06T11:20:17.276Z,9.90
2019-01-06T11:23:06.612Z,9.90
2019-01-06T11:25:54.567Z,9.90
2019-01-06T11:28:31.177Z,9.90
2019-01-06T11:31:06.207Z,9.90
2019-01-06T11:33:37.191Z,9.90
2019-01-06T11:36:14.044Z,9.90
2019-01-06T11:39:00.771Z,9.90
2019-01-06T11:41:35.858Z,9.90
2019-01-06T11:44:06.854Z,10.00
2019-01-06T11:46:40.708Z,10.00
2019-01-06T11:49:18.288Z,10.00
2019-01-06T11:51:49.255Z,10.00
2019-01-06T11:54:29.187Z,10.00
2019-01-06T11:57:05.920Z,10.00
2019-01-06T11:59:40.351Z,10.00
2019-01-06T12:02:14.291Z,10.00
2019-01-06T12:05:03.442Z,10.00
2019-01-06T12:07:49.547Z,10.00
2019-01-06T12:10:29.641Z,10.00
2019-01-06T12:13:06.706Z,10.00
2019-01-06T12:15:54.013Z,10.00
2019-01-06T12:18:37.280Z,10.00
2019-01-06T12:21:24.685Z,10.00
2019-01-06T12:23:58.405Z,10.00
2019-01-06T12:26:45.715Z,10.00
2019-01-06T12:29:35.081Z,10.00
2019-01-06T12:32:12.260Z,10.00
2019-01-06T12:34:56.175Z,10.00
2019-01-06T12:37:39.100Z,10.00
2019-01-06T12:40:25.481Z,10.00
2019-01-06T12:43:12.704Z,10.00
2019-01-06T12:45:46.312Z,10.00
2019-01-06T12:48:35.697Z,10.00
2019-01-06T12:51:12.512Z,10.00
2019-01-06T12:53:52.572Z,10.00
2019-01-06T12:56:38.677Z,10.00
2019-01-06T12:59:09.739Z,10.00
2019-01-06T13:01:59.108Z,10.10
2019-01-06T13:04:39.814Z,10.10
2019-01-06T13:07:24.264Z,10.10
2019-01-06T13:09:55.275Z,10.10
2019-01-06T13:12:42.659Z,10.10
2019-01-06T13:15:13.673Z,10.10
2019-01-06T13:17:53.612Z,10.10
2019-01-06T13:20:24.680Z,10.10
2019-01-06T13:23:10.704Z,10.10
2019-01-06T13:25:54.020Z,10.10
2019-01-06T13:28:27.713Z,10.10
2019-01-06T13:31:10.570Z,10.10
2019-01-06T13:33:41.556Z,10.00
2019-01-06T13:36:22.026Z,10.10
2019-01-06T13:38:53.021Z,10.10
2019-01-06T13:41:24.021Z,10.10
2019-01-06T13:43:57.771Z,10.10
2019-01-06T13:46:31.420Z,10.10
2019-01-06T13:49:02.435Z,10.10
2019-01-06T13:51:50.601Z,10.10
2019-01-06T13:54:29.944Z,10.10
2019-01-06T13:57:12.475Z,10.10
2019-01-06T13:59:43.455Z,10.10
2019-01-06T14:02:30.552Z,10.10
2019-01-06T14:05:07.315Z,10.00
2019-01-06T14:07:40.859Z,10.00
2019-01-06T14:10:11.854Z,10.00
2019-01-06T14:12:57.944Z,10.00
2019-01-06T14:15:45.097Z,10.00
2019-01-06T14:18:18.806Z,10.00
2019-01-06T14:21:01.973Z,10.00
2019-01-06T14:23:33.073Z,9.90
2019-01-06T14:26:16.088Z,10.00
2019-01-06T14:29:03.287Z,9.90
2019-01-06T14:31:40.027Z,9.90
2019-01-06T14:34:13.532Z,9.90
2019-01-06T14:36:44.513Z,9.90
2019-01-06T14:39:23.640Z,9.90
2019-01-06T14:42:06.647Z,10.00
2019-01-06T14:44:37.681Z,9.90
2019-01-06T14:47:08.684Z,10.00
2019-01-06T14:49:56.472Z,10.00
2019-01-06T14:52:33.656Z,9.90
2019-01-06T14:55:07.634Z,9.90
2019-01-06T14:57:38.629Z,9.90
2019-01-06T15:00:13.292Z,9.90
2019-01-06T15:02:44.284Z,9.90
2019-01-06T15:05:20.844Z,9.90
2019-01-06T15:08:06.942Z,9.90
2019-01-06T15:10:54.050Z,9.90
2019-01-06T15:13:37.975Z,9.80
2019-01-06T15:16:24.822Z,9.80
2019-01-06T15:19:12.017Z,9.80
2019-01-06T15:21:43.013Z,9.80
2019-01-06T15:24:16.967Z,9.80
2019-01-06T15:26:48.024Z,9.80
2019-01-06T15:29:30.894Z,9.80
2019-01-06T15:32:07.894Z,9.80
2019-01-06T15:34:41.613Z,9.80
2019-01-06T15:37:15.662Z,9.80
2019-01-06T15:39:46.657Z,9.80
2019-01-06T15:42:23.876Z,9.80
2019-01-06T15:45:09.939Z,9.80
2019-01-06T15:47:57.234Z,9.80
2019-01-06T15:50:30.639Z,9.80
2019-01-06T15:53:07.516Z,9.80
2019-01-06T15:55:49.998Z,9.80
2019-01-06T15:58:37.351Z,9.80
2019-01-06T16:01:11.242Z,9.80
2019-01-06T16:03:42.250Z,9.80
2019-01-06T16:06:15.749Z,9.80
2019-01-06T16:08:58.709Z,9.80
2019-01-06T16:11:45.989Z,9.80
2019-01-06T16:14:26.204Z,9.70
2019-01-06T16:17:15.670Z,9.70
2019-01-06T16:19:52.651Z,9.70
2019-01-06T16:22:24.359Z,9.70
2019-01-06T16:25:13.381Z,9.70
2019-01-06T16:27:46.402Z,9.70
2019-01-06T16:30:23.016Z,9.70
2019-01-06T16:32:56.763Z,9.70
2019-01-06T16:35:36.814Z,9.70
2019-01-06T16:38:13.608Z,9.70
2019-01-06T16:41:00.793Z,9.70
2019-01-06T16:43:39.177Z,9.70
2019-01-06T16:46:26.481Z,9.60
2019-01-06T16:49:00.362Z,9.60
2019-01-06T16:51:31.383Z,9.60
2019-01-06T16:54:04.789Z,9.60
2019-01-06T16:56:39.400Z,9.70
2019-01-06T16:59:10.402Z,9.70
2019-01-06T17:01:57.865Z,9.70
2019-01-06T17:04:41.089Z,9.60
2019-01-06T17:07:21.207Z,9.60
2019-01-06T17:09:52.210Z,9.60
2019-01-06T17:12:26.478Z,9.60
2019-01-06T17:15:13.580Z,9.60
2019-01-06T17:17:47.010Z,9.60
2019-01-06T17:20:18.000Z,9.60
2019-01-06T17:22:49.002Z,9.60
2019-01-06T17:25:34.840Z,9.60
2019-01-06T17:28:08.620Z,9.60
2019-01-06T17:30:55.857Z,9.60
2019-01-06T17:33:26.906Z,9.50
2019-01-06T17:35:57.924Z,9.50
2019-01-06T17:38:41.071Z,9.50
2019-01-06T17:41:14.487Z,9.50
2019-01-06T17:43:48.455Z,9.50
2019-01-06T17:46:34.569Z,9.40
2019-01-06T17:49:08.361Z,9.40
2019-01-06T17:51:51.318Z,9.40
2019-01-06T17:54:25.308Z,9.40
2019-01-06T17:57:02.103Z,9.40
2019-01-06T17:59:38.903Z,9.40
2019-01-06T18:02:26.430Z,9.40
2019-01-06T18:05:06.643Z,9.30
2019-01-06T18:07:44.284Z,9.30
2019-01-06T18:10:31.232Z,9.40
2019-01-06T18:13:08.921Z,9.30
2019-01-06T18:15:46.313Z,9.30
2019-01-06T18:18:20.474Z,9.30
2019-01-06T18:20:51.887Z,9.30
2019-01-06T18:23:28.825Z,9.30
2019-01-06T18:26:16.014Z,9.30
2019-01-06T18:28:46.992Z,9.30
2019-01-06T18:31:23.929Z,9.30
2019-01-06T18:33:57.808Z,9.30
2019-01-06T18:36:46.261Z,9.30
2019-01-06T18:39:23.514Z,9.30
2019-01-06T18:41:54.534Z,9.30
2019-01-06T18:44:40.550Z,9.30
2019-01-06T18:47:11.567Z,9.20
2019-01-06T18:49:43.162Z,9.30
2019-01-06T18:52:20.151Z,9.30
2019-01-06T18:55:09.474Z,9.30
2019-01-06T18:57:40.470Z,9.30
2019-01-06T19:00:27.952Z,9.30
2019-01-06T19:02:59.054Z,9.30
2019-01-06T19:05:32.985Z,9.30
2019-01-06T19:08:03.985Z,9.30
2019-01-06T19:10:50.973Z,9.30
2019-01-06T19:13:21.970Z,9.20
2019-01-06T19:15:52.965Z,9.20
2019-01-06T19:18:26.758Z,9.20
2019-01-06T19:21:06.487Z,9.30
2019-01-06T19:23:40.342Z,9.20
2019-01-06T19:26:11.348Z,9.20
2019-01-06T19:28:42.357Z,9.20
2019-01-06T19:31:19.273Z,9.20
2019-01-06T19:33:58.897Z,9.20
2019-01-06T19:36:38.736Z,9.20
2019-01-06T19:39:18.724Z,9.20
2019-01-06T19:41:49.736Z,9.20
2019-01-06T19:44:20.736Z,9.20
2019-01-06T19:47:00.613Z,9.20
2019-01-06T19:49:47.636Z,9.20
2019-01-06T19:52:25.406Z,9.20
2019-01-06T19:55:02.399Z,9.20
2019-01-06T19:57:46.722Z,9.20
2019-01-06T20:00:14.358Z,9.20
2019-01-06T20:02:48.146Z,9.20
2019-01-06T20:05:35.766Z,9.10
2019-01-06T20:08:09.418Z,9.10
2019-01-06T20:10:43.537Z,9.20
2019-01-06T20:13:26.780Z,9.10
2019-01-06T20:16:07.048Z,9.10
2019-01-06T20:18:54.965Z,9.10
2019-01-06T20:21:25.967Z,9.10
2019-01-06T20:24:15.096Z,9.10
2019-01-06T20:26:46.088Z,9.00
2019-01-06T20:29:17.090Z,9.00
2019-01-06T20:31:48.090Z,9.10
2019-01-06T20:34:19.075Z,9.10
2019-01-06T20:37:06.149Z,9.10
2019-01-06T20:39:37.143Z,9.00
2019-01-06T20:42:23.303Z,9.10
2019-01-06T20:44:54.302Z,9.00
2019-01-06T20:47:31.496Z,9.10
2019-01-06T20:50:20.767Z,9.00
2019-01-06T20:52:54.897Z,9.00
2019-01-06T20:55:42.273Z,9.00
2019-01-06T20:58:13.293Z,9.00
2019-01-06T21:01:00.836Z,9.00
2019-01-06T21:03:31.854Z,9.00
2019-01-06T21:06:02.886Z,9.00
2019-01-06T21:08:50.575Z,9.00
2019-01-06T21:11:39.691Z,9.00
2019-01-06T21:14:10.975Z,9.00
2019-01-06T21:16:50.765Z,9.00
2019-01-06T21:19:36.633Z,9.00
2019-01-06T21:22:10.656Z,9.00
2019-01-06T21:24:42.372Z,9.00
2019-01-06T21:27:13.386Z,9.00
2019-01-06T21:29:47.357Z,9.00
2019-01-06T21:32:18.373Z,9.00
2019-01-06T21:34:52.335Z,9.10
2019-01-06T21:37:26.319Z,9.10
2019-01-06T21:40:14.328Z,9.10
2019-01-06T21:42:45.333Z,9.00
2019-01-06T21:45:19.364Z,9.10
2019-01-06T21:48:08.647Z,9.10
2019-01-06T21:50:48.859Z,9.00
2019-01-06T21:53:31.997Z,9.00
2019-01-06T21:56:15.855Z,9.00
2019-01-06T21:58:48.003Z,9.00
2019-01-06T22:01:19.001Z,9.00
2019-01-06T22:03:52.993Z,9.10
2019-01-06T22:06:33.290Z,9.00
2019-01-06T22:09:16.504Z,9.10
2019-01-06T22:12:03.551Z,9.10
2019-01-06T22:14:37.517Z,9.00
2019-01-06T22:17:24.969Z,9.00
2019-01-06T22:20:12.551Z,9.00
2019-01-06T22:22:49.342Z,9.00
2019-01-06T22:25:20.371Z,9.00
2019-01-06T22:27:57.196Z,9.00
2019-01-06T22:30:31.606Z,9.00
2019-01-06T22:33:18.997Z,9.10
2019-01-06T22:36:06.325Z,9.00
2019-01-06T22:38:49.571Z,9.00
2019-01-06T22:41:36.688Z,9.00
2019-01-06T22:44:24.251Z,9.00
2019-01-06T22:47:12.135Z,9.00
2019-01-06T22:49:55.072Z,8.90
2019-01-06T22:52:36.677Z,8.90
2019-01-06T22:55:04.186Z,8.90
2019-01-06T22:57:37.593Z,9.00
2019-01-06T23:00:31.266Z,9.00
2019-01-06T23:03:20.755Z,9.00
2019-01-06T23:05:57.460Z,8.90
2019-01-06T23:08:28.477Z,8.90
2019-01-06T23:11:02.616Z,8.90
2019-01-06T23:13:36.260Z,9.00
2019-01-06T23:16:10.201Z,8.90
2019-01-06T23:18:41.242Z,8.90
2019-01-06T23:21:28.301Z,9.00
2019-01-06T23:23:59.307Z,8.90
2019-01-06T23:26:33.015Z,8.90
2019-01-06T23:29:19.078Z,8.90
2019-01-06T23:32:04.956Z,8.90
2019-01-06T23:34:45.991Z,8.90
2019-01-06T23:37:16.984Z,8.90
2019-01-06T23:39:54.082Z,8.90
2019-01-06T23:42:41.465Z,8.90
2019-01-06T23:45:20.323Z,8.80
2019-01-06T23:47:51.293Z,8.80
2019-01-06T23:50:22.286Z,8.80
2019-01-06T23:53:00.431Z,8.80
2019-01-06T23:55:34.855Z,8.80
2019-01-06T23:58:15.202Z,8.80
